createdAt,value
2023-03-02T00:02:04.818Z,1.40
2023-03-02T00:04:34.303Z,1.40
2023-03-02T00:07:06.046Z,1.50
2023-03-02T00:09:36.529Z,1.40
2023-03-02T00:12:05.323Z,1.70
2023-03-02T00:14:33.384Z,1.50
2023-03-02T00:17:02.693Z,1.60
2023-03-02T00:19:30.902Z,1.70
2023-03-02T00:21:58.868Z,1.50
2023-03-02T00:24:26.868Z,1.50
2023-03-02T00:26:56.575Z,1.50
2023-03-02T00:29:24.668Z,1.60
2023-03-02T00:31:52.796Z,1.60
2023-03-02T00:34:20.885Z,1.70
2023-03-02T00:36:49.528Z,2.60
2023-03-02T00:39:20.112Z,1.50
2023-03-02T00:41:49.286Z,1.40
2023-03-02T00:44:18.765Z,1.50
2023-03-02T00:46:47.155Z,1.50
2023-03-02T00:49:15.176Z,1.50
2023-03-02T00:51:43.248Z,1.50
2023-03-02T00:54:11.511Z,1.50
2023-03-02T00:56:39.594Z,1.40
2023-03-02T00:59:18.264Z,1.50
2023-03-02T01:01:58.377Z,1.40
2023-03-02T01:04:29.752Z,2.80
2023-03-02T01:06:58.345Z,1.50
2023-03-02T01:09:26.698Z,1.50
2023-03-02T01:11:55.050Z,1.40
2023-03-02T01:14:23.429Z,1.40
2023-03-02T01:16:52.824Z,1.70
2023-03-02T01:19:20.899Z,2.10
2023-03-02T01:21:49.110Z,1.50
2023-03-02T01:24:17.323Z,1.40
2023-03-02T01:26:45.292Z,1.60
2023-03-02T01:29:13.294Z,1.40
2023-03-02T01:31:42.835Z,1.40
2023-03-02T01:34:12.291Z,1.80
2023-03-02T01:36:40.337Z,1.40
2023-03-02T01:39:08.374Z,1.50
2023-03-02T01:41:36.395Z,1.40
2023-03-02T01:44:04.404Z,1.40
2023-03-02T01:46:35.240Z,1.40
2023-03-02T01:49:06.122Z,1.40
2023-03-02T01:51:44.547Z,1.40
2023-03-02T01:54:17.257Z,1.40
2023-03-02T01:56:47.214Z,1.40
2023-03-02T01:59:19.656Z,2.10
2023-03-02T02:01:52.377Z,2.10
2023-03-02T02:04:22.352Z,1.30
2023-03-02T02:06:56.585Z,1.20
2023-03-02T02:09:26.391Z,1.20
2023-03-02T02:11:54.504Z,1.90
2023-03-02T02:14:23.381Z,1.40
2023-03-02T02:16:52.683Z,1.10
2023-03-02T02:19:35.389Z,1.00
2023-03-02T02:22:04.960Z,1.70
2023-03-02T02:24:38.334Z,1.00
2023-03-02T02:27:07.870Z,1.80
2023-03-02T02:29:39.429Z,1.80
2023-03-02T02:32:14.596Z,0.90
2023-03-02T02:34:47.538Z,0.90
2023-03-02T02:37:20.298Z,0.90
2023-03-02T02:39:50.063Z,0.80
2023-03-02T02:42:23.070Z,0.80
2023-03-02T02:44:52.908Z,0.80
2023-03-02T02:47:23.011Z,0.80
2023-03-02T02:49:54.091Z,0.80
2023-03-02T02:52:24.395Z,0.80
2023-03-02T02:54:54.973Z,0.70
2023-03-02T02:57:29.460Z,1.00
2023-03-02T03:00:00.694Z,1.00
2023-03-02T03:02:31.106Z,0.70
2023-03-02T03:05:03.813Z,0.70
2023-03-02T03:07:33.139Z,0.70
2023-03-02T03:10:08.051Z,1.80
2023-03-02T03:12:39.791Z,1.00
2023-03-02T03:15:09.651Z,0.90
2023-03-02T03:17:37.713Z,0.70
2023-03-02T03:20:08.713Z,0.70
2023-03-02T03:22:37.546Z,0.70
2023-03-02T03:25:06.589Z,0.70
2023-03-02T03:27:34.636Z,0.70
2023-03-02T03:30:04.298Z,0.70
2023-03-02T03:32:35.451Z,0.70
2023-03-02T03:35:03.755Z,0.70
2023-03-02T03:37:31.786Z,1.60
2023-03-02T03:39:59.824Z,0.60
2023-03-02T03:42:28.059Z,0.70
2023-03-02T03:44:56.122Z,0.60
2023-03-02T03:47:25.458Z,0.70
2023-03-02T03:49:53.525Z,0.70
2023-03-02T03:52:30.355Z,1.50
2023-03-02T03:54:59.469Z,0.70
2023-03-02T03:57:28.229Z,0.70
2023-03-02T03:59:56.489Z,0.80
2023-03-02T04:02:26.090Z,0.80
2023-03-02T04:04:54.150Z,0.80
2023-03-02T04:07:22.190Z,0.80
2023-03-02T04:10:03.405Z,1.70
2023-03-02T04:12:32.061Z,0.90
2023-03-02T04:15:00.099Z,0.80
2023-03-02T04:17:29.872Z,1.60
2023-03-02T04:19:58.763Z,0.80
2023-03-02T04:22:26.898Z,0.80
2023-03-02T04:24:55.048Z,1.50
2023-03-02T04:27:23.104Z,0.80
2023-03-02T04:29:53.051Z,1.40
2023-03-02T04:32:21.364Z,0.80
2023-03-02T04:34:50.840Z,1.00
2023-03-02T04:37:18.871Z,1.40
2023-03-02T04:39:51.149Z,0.70
2023-03-02T04:42:19.078Z,1.00
2023-03-02T04:44:47.205Z,1.30
2023-03-02T04:47:15.874Z,0.60
2023-03-02T04:49:43.874Z,0.60
2023-03-02T04:52:13.349Z,0.60
2023-03-02T04:54:41.360Z,0.60
2023-03-02T04:57:09.980Z,0.80
2023-03-02T04:59:38.056Z,0.60
2023-03-02T05:02:07.168Z,0.60
2023-03-02T05:04:35.446Z,1.00
2023-03-02T05:07:03.502Z,1.20
2023-03-02T05:09:32.851Z,0.70
2023-03-02T05:12:02.201Z,0.70
2023-03-02T05:14:30.697Z,0.80
2023-03-02T05:16:59.084Z,1.00
2023-03-02T05:19:27.202Z,0.60
2023-03-02T05:21:56.425Z,1.10
2023-03-02T05:24:24.562Z,0.60
2023-03-02T05:26:53.931Z,0.70
2023-03-02T05:29:22.004Z,0.50
2023-03-02T05:31:50.696Z,1.60
2023-03-02T05:34:19.430Z,0.90
2023-03-02T05:36:47.751Z,0.50
2023-03-02T05:39:15.754Z,0.70
2023-03-02T05:41:43.819Z,0.50
2023-03-02T05:44:13.215Z,0.90
2023-03-02T05:46:41.690Z,0.50
2023-03-02T05:49:10.662Z,0.50
2023-03-02T05:51:38.688Z,0.60
2023-03-02T05:54:06.775Z,0.70
2023-03-02T05:56:35.029Z,0.50
2023-03-02T05:59:03.316Z,0.80
2023-03-02T06:01:33.021Z,0.50
2023-03-02T06:04:01.213Z,0.60
2023-03-02T06:06:29.501Z,0.40
2023-03-02T06:08:57.464Z,0.40
2023-03-02T06:11:25.510Z,0.30
2023-03-02T06:13:53.580Z,0.60
2023-03-02T06:16:21.666Z,1.30
2023-03-02T06:18:51.101Z,0.70
2023-03-02T06:21:19.082Z,1.10
2023-03-02T06:23:47.121Z,0.20
2023-03-02T06:26:15.154Z,0.20
2023-03-02T06:28:52.015Z,0.90
2023-03-02T06:31:21.124Z,1.40
2023-03-02T06:33:50.711Z,0.60
2023-03-02T06:36:18.745Z,0.50
2023-03-02T06:38:47.021Z,0.60
2023-03-02T06:41:15.083Z,0.50
2023-03-02T06:43:43.346Z,0.30
2023-03-02T06:46:11.432Z,1.40
2023-03-02T06:48:39.502Z,0.30
2023-03-02T06:51:09.550Z,0.30
2023-03-02T06:53:37.579Z,0.30
2023-03-02T06:56:06.394Z,0.30
2023-03-02T06:58:34.429Z,0.40
2023-03-02T07:01:02.469Z,0.50
2023-03-02T07:03:30.604Z,1.10
2023-03-02T07:05:58.636Z,0.50
2023-03-02T07:08:28.017Z,0.50
2023-03-02T07:10:56.002Z,1.20
2023-03-02T07:13:24.080Z,0.40
2023-03-02T07:15:52.097Z,0.50
2023-03-02T07:18:20.129Z,1.10
2023-03-02T07:20:48.137Z,0.50
2023-03-02T07:23:16.175Z,0.60
2023-03-02T07:25:45.566Z,1.10
2023-03-02T07:28:13.529Z,0.60
2023-03-02T07:30:41.537Z,0.90
2023-03-02T07:33:09.554Z,0.60
2023-03-02T07:35:37.621Z,0.80
2023-03-02T07:38:05.735Z,1.40
2023-03-02T07:40:34.017Z,1.70
2023-03-02T07:43:03.389Z,1.70
2023-03-02T07:45:31.415Z,0.70
2023-03-02T07:47:59.440Z,1.60
2023-03-02T07:50:27.616Z,0.70
2023-03-02T07:52:55.669Z,0.80
2023-03-02T07:55:23.708Z,0.80
2023-03-02T07:57:51.737Z,0.90
2023-03-02T08:00:22.828Z,1.90
2023-03-02T08:02:50.960Z,0.90
2023-03-02T08:05:19.117Z,1.30
2023-03-02T08:07:48.414Z,1.20
2023-03-02T08:10:16.583Z,1.00
2023-03-02T08:12:44.816Z,1.00
2023-03-02T08:15:13.282Z,1.00
2023-03-02T08:17:42.687Z,1.10
2023-03-02T08:20:11.986Z,1.10
2023-03-02T08:22:40.029Z,1.20
2023-03-02T08:25:08.814Z,1.20
2023-03-02T08:27:37.107Z,1.30
2023-03-02T08:30:06.146Z,1.30
2023-03-02T08:32:34.765Z,1.40
2023-03-02T08:35:04.415Z,2.50
2023-03-02T08:37:32.419Z,1.50
2023-03-02T08:40:00.430Z,1.60
2023-03-02T08:42:28.450Z,1.70
2023-03-02T08:44:56.471Z,1.70
2023-03-02T08:47:24.567Z,1.80
2023-03-02T08:49:52.603Z,2.70
2023-03-02T08:52:22.010Z,1.90
2023-03-02T08:54:50.137Z,2.00
2023-03-02T08:57:19.323Z,2.00
2023-03-02T08:59:49.045Z,2.10
2023-03-02T09:02:17.014Z,2.10
2023-03-02T09:04:45.239Z,2.20
2023-03-02T09:07:17.274Z,2.30
2023-03-02T09:09:46.744Z,2.40
2023-03-02T09:12:14.789Z,2.40
2023-03-02T09:14:42.791Z,2.50
2023-03-02T09:17:12.935Z,2.60
2023-03-02T09:19:44.339Z,2.60
2023-03-02T09:22:12.782Z,2.70
2023-03-02T09:24:40.846Z,2.70
2023-03-02T09:27:10.237Z,3.90
2023-03-02T09:29:38.251Z,2.80
2023-03-02T09:32:06.643Z,2.90
2023-03-02T09:34:34.791Z,3.00
2023-03-02T09:37:03.922Z,3.10
2023-03-02T09:39:31.953Z,3.10
2023-03-02T09:42:41.766Z,3.20
2023-03-02T09:45:20.495Z,3.20
2023-03-02T09:47:56.057Z,3.30
2023-03-02T09:50:31.169Z,3.40
2023-03-02T09:53:33.740Z,3.50
2023-03-02T09:56:02.513Z,3.50
2023-03-02T09:58:36.938Z,3.60
2023-03-02T10:01:11.874Z,3.60
2023-03-02T10:03:46.292Z,3.70
2023-03-02T10:06:14.712Z,3.80
2023-03-02T10:08:43.682Z,3.90
2023-03-02T10:11:18.190Z,4.40
2023-03-02T10:13:52.371Z,4.00
2023-03-02T10:16:28.903Z,4.10
2023-03-02T10:19:06.593Z,4.40
2023-03-02T10:21:40.367Z,4.30
2023-03-02T10:24:22.150Z,4.30
2023-03-02T10:26:54.334Z,4.40
2023-03-02T10:29:45.054Z,4.40
2023-03-02T10:32:21.236Z,4.50
2023-03-02T10:34:50.169Z,4.60
2023-03-02T10:37:21.667Z,4.70
2023-03-02T10:39:49.821Z,4.70
2023-03-02T10:42:21.369Z,4.80
2023-03-02T10:44:54.770Z,4.80
2023-03-02T10:47:25.513Z,4.80
2023-03-02T10:49:55.533Z,4.90
2023-03-02T10:52:25.911Z,5.00
2023-03-02T10:55:03.840Z,5.00
2023-03-02T10:57:37.675Z,5.10
2023-03-02T11:00:17.423Z,5.20
2023-03-02T11:02:53.341Z,5.20
2023-03-02T11:05:33.585Z,5.20
2023-03-02T11:08:03.200Z,5.60
2023-03-02T11:10:34.217Z,5.40
2023-03-02T11:13:04.385Z,5.50
2023-03-02T11:15:41.816Z,5.60
2023-03-02T11:18:23.198Z,5.70
2023-03-02T11:20:55.965Z,5.70
2023-03-02T11:23:31.692Z,5.70
2023-03-02T11:26:03.393Z,5.80
2023-03-02T11:28:46.628Z,5.80
2023-03-02T11:31:23.611Z,5.90
2023-03-02T11:34:17.569Z,6.00
2023-03-02T11:36:57.476Z,6.10
2023-03-02T11:39:30.311Z,6.10
2023-03-02T11:41:58.384Z,6.20
2023-03-02T11:44:27.460Z,6.30
2023-03-02T11:47:00.994Z,6.40
2023-03-02T11:49:38.935Z,6.50
2023-03-02T11:52:16.115Z,6.90
2023-03-02T11:54:47.627Z,6.60
2023-03-02T11:57:24.000Z,6.60
2023-03-02T11:59:52.983Z,6.70
2023-03-02T12:02:23.211Z,7.00
2023-03-02T12:05:01.932Z,6.90
2023-03-02T12:07:29.960Z,7.00
2023-03-02T12:10:01.468Z,7.10
2023-03-02T12:12:49.243Z,7.90
2023-03-02T12:15:36.534Z,7.30
2023-03-02T12:18:17.051Z,7.80
2023-03-02T12:20:45.037Z,7.60
2023-03-02T12:23:24.528Z,7.80
2023-03-02T12:26:04.248Z,8.30
2023-03-02T12:28:34.850Z,8.00
2023-03-02T12:31:05.699Z,8.00
2023-03-02T12:33:44.210Z,8.20
2023-03-02T12:36:15.674Z,8.30
2023-03-02T12:38:48.145Z,8.50
2023-03-02T12:41:59.939Z,9.20
2023-03-02T12:44:43.906Z,8.60
2023-03-02T12:47:21.763Z,8.90
2023-03-02T12:49:55.762Z,9.10
2023-03-02T12:52:30.149Z,9.30
2023-03-02T12:55:03.964Z,9.40
2023-03-02T12:57:32.228Z,9.40
2023-03-02T13:00:02.959Z,9.70
2023-03-02T13:02:32.343Z,9.70
2023-03-02T13:05:04.210Z,9.90
2023-03-02T13:07:37.619Z,10.30
2023-03-02T13:10:10.757Z,10.20
2023-03-02T13:12:45.488Z,10.10
2023-03-02T13:15:17.071Z,10.80
2023-03-02T13:17:53.110Z,10.40
2023-03-02T13:20:24.214Z,10.70
2023-03-02T13:22:52.736Z,10.70
2023-03-02T13:25:25.818Z,10.90
2023-03-02T13:27:55.564Z,11.30
2023-03-02T13:30:27.215Z,11.20
2023-03-02T13:33:00.942Z,11.40
2023-03-02T13:35:32.321Z,11.50
2023-03-02T13:38:04.581Z,11.60
2023-03-02T13:40:35.537Z,11.90
2023-03-02T13:43:08.641Z,12.00
2023-03-02T13:45:37.250Z,12.10
2023-03-02T13:48:15.689Z,12.40
2023-03-02T13:50:53.610Z,12.60
2023-03-02T13:53:22.138Z,12.70
2023-03-02T13:55:50.407Z,12.70
2023-03-02T13:58:20.221Z,12.80
2023-03-02T14:00:49.589Z,13.00
2023-03-02T14:03:24.126Z,13.20
2023-03-02T14:05:54.443Z,13.30
2023-03-02T14:08:22.587Z,13.50
2023-03-02T14:10:53.279Z,13.60
2023-03-02T14:13:25.178Z,13.50
2023-03-02T14:15:54.462Z,13.60
2023-03-02T14:18:31.113Z,13.50
2023-03-02T14:21:00.593Z,13.30
2023-03-02T14:23:29.362Z,13.60
2023-03-02T14:25:57.998Z,13.70
2023-03-02T14:28:29.070Z,13.90
2023-03-02T14:30:59.159Z,13.80
2023-03-02T14:33:27.241Z,13.80
2023-03-02T14:35:58.740Z,13.70
2023-03-02T14:38:28.837Z,14.00
2023-03-02T14:40:57.164Z,14.10
2023-03-02T14:43:26.141Z,13.90
2023-03-02T14:45:54.808Z,13.70
2023-03-02T14:48:22.949Z,13.80
2023-03-02T14:50:52.389Z,13.90
2023-03-02T14:53:29.028Z,13.90
2023-03-02T14:55:58.481Z,13.70
2023-03-02T14:58:31.854Z,13.70
2023-03-02T15:00:59.924Z,13.80
2023-03-02T15:03:29.370Z,13.70
2023-03-02T15:06:02.099Z,13.60
2023-03-02T15:08:30.792Z,13.60
2023-03-02T15:11:00.182Z,13.60
2023-03-02T15:13:28.225Z,13.70
2023-03-02T15:15:56.406Z,13.50
2023-03-02T15:18:24.518Z,13.20
2023-03-02T15:20:52.512Z,13.10
2023-03-02T15:23:20.768Z,13.10
2023-03-02T15:25:48.847Z,13.20
2023-03-02T15:28:18.296Z,13.10
2023-03-02T15:30:47.516Z,12.60
2023-03-02T15:33:15.512Z,12.50
2023-03-02T15:35:44.390Z,12.30
2023-03-02T15:38:12.523Z,12.20
2023-03-02T15:40:40.502Z,12.10
2023-03-02T15:43:08.497Z,11.80
2023-03-02T15:45:37.897Z,11.60
2023-03-02T15:48:06.503Z,11.40
2023-03-02T15:50:34.517Z,11.10
2023-03-02T15:53:02.520Z,11.10
2023-03-02T15:55:30.534Z,11.00
2023-03-02T15:57:59.837Z,10.80
2023-03-02T16:00:29.259Z,10.70
2023-03-02T16:02:58.655Z,10.70
2023-03-02T16:05:26.714Z,10.60
2023-03-02T16:07:54.727Z,10.40
2023-03-02T16:10:24.852Z,10.30
2023-03-02T16:12:52.982Z,10.00
2023-03-02T16:15:21.105Z,9.90
2023-03-02T16:17:49.250Z,9.90
2023-03-02T16:20:18.904Z,9.80
2023-03-02T16:22:47.175Z,9.60
2023-03-02T16:25:15.158Z,9.60
2023-03-02T16:27:47.069Z,9.30
2023-03-02T16:30:16.364Z,9.30
2023-03-02T16:32:44.474Z,9.80
2023-03-02T16:35:12.535Z,9.20
2023-03-02T16:37:41.993Z,9.10
2023-03-02T16:40:11.803Z,9.20
2023-03-02T16:42:39.823Z,9.00
2023-03-02T16:45:09.169Z,8.90
2023-03-02T16:47:37.712Z,8.70
2023-03-02T16:50:06.993Z,8.70
2023-03-02T16:52:35.012Z,8.80
2023-03-02T16:55:04.816Z,8.70
2023-03-02T16:57:32.866Z,8.60
2023-03-02T17:00:00.934Z,8.50
2023-03-02T17:02:29.328Z,8.60
2023-03-02T17:04:57.361Z,8.30
2023-03-02T17:07:25.573Z,8.20
2023-03-02T17:09:53.772Z,8.20
2023-03-02T17:12:23.268Z,8.10
2023-03-02T17:14:51.277Z,8.10
2023-03-02T17:17:19.379Z,7.90
2023-03-02T17:19:47.475Z,7.90
2023-03-02T17:22:15.599Z,7.90
2023-03-02T17:24:43.594Z,7.80
2023-03-02T17:27:24.036Z,7.60
2023-03-02T17:29:55.124Z,7.50
2023-03-02T17:32:24.710Z,7.50
2023-03-02T17:34:52.853Z,7.40
2023-03-02T17:37:21.045Z,7.80
2023-03-02T17:39:50.427Z,7.20
2023-03-02T17:42:18.858Z,7.20
2023-03-02T17:44:46.930Z,7.10
2023-03-02T17:47:17.503Z,7.30
2023-03-02T17:49:46.174Z,7.20
2023-03-02T17:52:14.587Z,7.70
2023-03-02T17:54:42.760Z,7.20
2023-03-02T17:57:11.523Z,6.80
2023-03-02T17:59:39.607Z,7.50
2023-03-02T18:02:07.634Z,6.70
2023-03-02T18:04:36.998Z,6.70
2023-03-02T18:07:04.990Z,6.60
2023-03-02T18:09:32.996Z,6.60
2023-03-02T18:12:02.605Z,6.50
2023-03-02T18:14:31.208Z,6.80
2023-03-02T18:16:59.465Z,6.80
2023-03-02T18:19:27.547Z,6.30
2023-03-02T18:21:58.219Z,7.10
2023-03-02T18:24:26.478Z,6.20
2023-03-02T18:26:54.729Z,6.20
2023-03-02T18:29:23.968Z,6.10
2023-03-02T18:31:53.329Z,6.00
2023-03-02T18:34:21.708Z,6.00
2023-03-02T18:36:50.134Z,6.00
2023-03-02T18:39:19.831Z,5.90
2023-03-02T18:41:47.899Z,5.90
2023-03-02T18:44:16.077Z,6.30
2023-03-02T18:46:44.231Z,5.80
2023-03-02T18:49:12.398Z,5.70
2023-03-02T18:51:40.463Z,5.70
2023-03-02T18:54:08.585Z,6.20
2023-03-02T18:56:40.519Z,5.60
2023-03-02T18:59:09.916Z,5.60
2023-03-02T19:01:38.240Z,6.00
2023-03-02T19:04:07.046Z,5.50
2023-03-02T19:06:35.246Z,5.40
2023-03-02T19:09:03.584Z,5.40
2023-03-02T19:11:31.661Z,5.30
2023-03-02T19:14:02.585Z,6.20
2023-03-02T19:16:30.713Z,5.30
2023-03-02T19:18:58.841Z,5.20
2023-03-02T19:21:27.033Z,5.70
2023-03-02T19:23:55.304Z,5.10
2023-03-02T19:26:23.533Z,5.10
2023-03-02T19:28:51.679Z,5.10
2023-03-02T19:31:21.591Z,5.00
2023-03-02T19:33:49.541Z,5.00
2023-03-02T19:36:17.562Z,5.00
2023-03-02T19:38:45.624Z,4.90
2023-03-02T19:41:15.264Z,4.90
2023-03-02T19:43:45.358Z,4.80
2023-03-02T19:46:14.375Z,4.80
2023-03-02T19:48:44.232Z,4.70
2023-03-02T19:51:13.583Z,5.00
2023-03-02T19:53:42.503Z,4.70
2023-03-02T19:56:14.313Z,4.90
2023-03-02T19:58:47.585Z,4.70
2023-03-02T20:01:21.612Z,5.20
2023-03-02T20:03:52.730Z,4.50
2023-03-02T20:06:21.292Z,4.50
2023-03-02T20:08:49.437Z,4.40
2023-03-02T20:11:18.379Z,4.40
2023-03-02T20:13:46.523Z,4.40
2023-03-02T20:16:19.498Z,4.30
2023-03-02T20:18:47.542Z,4.30
2023-03-02T20:21:19.732Z,4.80
2023-03-02T20:23:49.983Z,4.20
2023-03-02T20:26:18.352Z,4.20
2023-03-02T20:28:46.677Z,4.20
2023-03-02T20:31:16.160Z,4.20
2023-03-02T20:33:47.651Z,4.10
2023-03-02T20:36:23.317Z,4.80
2023-03-02T20:38:55.258Z,4.10
2023-03-02T20:41:23.693Z,4.20
2023-03-02T20:43:51.936Z,4.00
2023-03-02T20:46:24.134Z,4.00
2023-03-02T20:48:52.655Z,3.90
2023-03-02T20:51:22.835Z,4.00
2023-03-02T20:53:51.181Z,3.90
2023-03-02T20:56:19.745Z,3.90
2023-03-02T20:58:48.843Z,3.90
2023-03-02T21:01:18.116Z,3.80
2023-03-02T21:03:46.251Z,3.80
2023-03-02T21:06:15.198Z,3.70
2023-03-02T21:08:45.879Z,3.70
2023-03-02T21:11:17.871Z,3.70
2023-03-02T21:13:47.988Z,4.30
2023-03-02T21:16:19.193Z,3.70
2023-03-02T21:18:47.252Z,4.10
2023-03-02T21:21:15.697Z,3.60
2023-03-02T21:23:45.086Z,3.60
2023-03-02T21:26:13.420Z,4.10
2023-03-02T21:28:44.057Z,3.50
2023-03-02T21:31:13.219Z,3.50
2023-03-02T21:33:41.619Z,3.40
2023-03-02T21:36:14.777Z,3.40
2023-03-02T21:38:44.840Z,3.40
2023-03-02T21:41:12.896Z,3.40
2023-03-02T21:43:40.954Z,3.30
2023-03-02T21:46:09.011Z,3.60
2023-03-02T21:48:37.134Z,3.50
2023-03-02T21:51:05.584Z,3.20
2023-03-02T21:53:33.601Z,3.20
2023-03-02T21:56:03.025Z,3.20
2023-03-02T21:58:31.090Z,3.40
2023-03-02T22:00:59.184Z,3.10
2023-03-02T22:03:27.613Z,3.10
2023-03-02T22:05:55.704Z,3.10
2023-03-02T22:08:23.731Z,3.10
2023-03-02T22:10:52.820Z,3.60
2023-03-02T22:13:24.681Z,3.00
2023-03-02T22:15:58.820Z,3.00
2023-03-02T22:18:27.780Z,3.00
2023-03-02T22:20:55.778Z,2.90
2023-03-02T22:23:26.243Z,2.90
2023-03-02T22:25:55.998Z,2.90
2023-03-02T22:28:27.914Z,2.90
2023-03-02T22:30:59.755Z,2.90
2023-03-02T22:33:29.790Z,2.80
2023-03-02T22:36:02.775Z,2.80
2023-03-02T22:38:32.196Z,2.80
2023-03-02T22:41:00.171Z,2.80
2023-03-02T22:43:31.100Z,2.70
2023-03-02T22:46:00.672Z,2.70
2023-03-02T22:48:30.757Z,2.70
2023-03-02T22:50:58.774Z,2.70
2023-03-02T22:53:30.051Z,2.70
2023-03-02T22:55:59.964Z,3.40
2023-03-02T22:58:43.746Z,2.70
2023-03-02T23:01:38.105Z,2.70
2023-03-02T23:04:16.187Z,2.70
2023-03-02T23:06:46.452Z,2.60
2023-03-02T23:09:17.606Z,2.60
2023-03-02T23:11:46.419Z,2.60
2023-03-02T23:14:22.199Z,2.60
2023-03-02T23:16:54.671Z,2.60
2023-03-02T23:19:22.914Z,2.60
2023-03-02T23:21:51.503Z,2.50
2023-03-02T23:24:21.959Z,2.80
2023-03-02T23:26:51.999Z,2.50
2023-03-02T23:29:22.384Z,2.50
2023-03-02T23:31:50.892Z,2.50
2023-03-02T23:34:19.442Z,2.40
2023-03-02T23:36:47.568Z,2.40
2023-03-02T23:39:15.794Z,2.40
2023-03-02T23:41:43.905Z,2.50
2023-03-02T23:44:11.897Z,2.40
2023-03-02T23:46:41.415Z,2.40
2023-03-02T23:49:09.452Z,2.40
2023-03-02T23:51:37.447Z,3.50
2023-03-02T23:54:05.942Z,2.30
2023-03-02T23:56:34.020Z,2.30
2023-03-02T23:59:02.173Z,2.30
